Time;durP1;ratioP1;P1;durP2;ratioP2;P2;SDS_P1;SDS_P2;PMS_P1;PMS_P2;Temp;Humidity;BMP_temperature;BMP_pressure;BME280_temperature;BME280_humidity;BME280_pressure;Samples;Min_cycle;Max_cycle;Signal;HPM_P1;HPM_P2
2022/09/13 00:00:59;;;;;;;6.03;5.43;;;;;;;17.13;87.90;101057.16;5053962;28;20553;-79
2022/09/13 00:03:26;;;;;;;6.55;6.05;;;;;;;17.12;88.11;101061.06;5054066;28;20049;-80
2022/09/13 00:05:53;;;;;;;6.40;5.90;;;;;;;17.12;87.71;101050.31;5069612;28;20048;-80
2022/09/13 00:08:20;;;;;;;6.43;5.78;;;;;;;17.13;88.29;101051.06;5054316;28;20041;-80
2022/09/13 00:10:46;;;;;;;7.32;6.22;;;;;;;17.11;88.57;101056.16;5052043;28;20100;-80
2022/09/13 00:13:14;;;;;;;6.32;5.82;;;;;;;17.10;88.17;101054.69;5054137;28;20059;-80
2022/09/13 00:15:50;;;;;;;7.05;6.32;;;;;;;17.07;89.02;101056.38;5053816;28;20536;-79
2022/09/13 00:18:17;;;;;;;6.93;6.43;;;;;;;17.04;89.23;101056.59;5054221;28;20041;-79
2022/09/13 00:20:44;;;;;;;6.88;6.32;;;;;;;17.02;89.81;101050.97;5053712;28;20425;-80
2022/09/13 00:23:12;;;;;;;7.05;6.50;;;;;;;17.02;89.71;101050.97;5069612;28;20056;-80
2022/09/13 00:25:38;;;;;;;8.40;6.53;;;;;;;17.00;89.71;101046.78;5053073;28;20134;-80
2022/09/13 00:28:05;;;;;;;7.43;6.72;;;;;;;16.99;90.16;101045.31;5053642;28;20516;-79
2022/09/13 00:30:33;;;;;;;11.57;6.57;;;;;;;16.99;89.34;101031.88;5053747;28;20052;-79
2022/09/13 00:33:03;;;;;;;11.82;6.78;;;;;;;16.99;89.44;101039.19;5053330;28;20518;-80
2022/09/13 00:35:30;;;;;;;9.32;6.30;;;;;;;16.99;89.91;101045.31;5069174;28;20104;-79
2022/09/13 00:37:58;;;;;;;7.38;6.82;;;;;;;16.98;89.85;101049.22;5052049;28;20123;-79
2022/09/13 00:40:25;;;;;;;7.72;7.13;;;;;;;16.96;90.14;101045.53;5052866;28;20858;-79
2022/09/13 00:42:51;;;;;;;7.93;7.18;;;;;;;16.96;89.72;101046.25;5053480;28;20103;-79
2022/09/13 00:45:18;;;;;;;8.15;7.45;;;;;;;16.96;89.79;101040.88;5053837;28;20144;-79
2022/09/13 00:48:00;;;;;;;7.75;7.15;;;;;;;16.96;89.96;101042.84;5053004;28;20052;-79
2022/09/13 00:50:33;;;;;;;7.68;6.97;;;;;;;16.94;90.80;101042.56;5051866;28;20104;-79
2022/09/13 00:53:15;;;;;;;9.27;7.05;;;;;;;16.94;90.45;101051.38;5051991;28;20053;-79
2022/09/13 00:56:00;;;;;;;8.10;7.43;;;;;;;16.94;90.35;101043.31;5069046;28;20128;-79
2022/09/13 00:58:35;;;;;;;8.20;7.38;;;;;;;16.93;91.00;101041.09;5053432;28;20076;-79
2022/09/13 01:01:04;;;;;;;7.47;6.97;;;;;;;16.91;90.80;101038.88;5051627;28;20057;-79
2022/09/13 01:03:34;;;;;;;8.63;7.78;;;;;;;16.91;91.27;101036.19;5052574;28;20081;-79
2022/09/13 01:06:05;;;;;;;8.00;7.20;;;;;;;16.91;91.72;101025.44;5053266;28;20045;-79
2022/09/13 01:08:35;;;;;;;7.57;6.85;;;;;;;16.91;91.34;101028.13;5051253;28;20125;-79
2022/09/13 01:11:04;;;;;;;7.13;6.20;;;;;;;16.89;92.06;101035.19;5052946;28;20558;-79
2022/09/13 01:13:32;;;;;;;7.97;6.63;;;;;;;16.86;92.00;101036.88;5051616;28;20060;-79
2022/09/13 01:15:59;;;;;;;7.00;6.50;;;;;;;16.86;91.98;101030.75;5052704;28;20056;-79
2022/09/13 01:18:26;;;;;;;12.70;7.10;;;;;;;16.85;92.16;101037.34;5052985;28;20497;-79
2022/09/13 01:21:26;;;;;;;7.50;6.75;;;;;;;16.83;91.95;101031.72;5052801;28;20084;-79
2022/09/13 01:24:38;;;;;;;6.85;6.30;;;;;;;16.83;91.24;101031.72;5052351;28;20050;-79
2022/09/13 01:27:39;;;;;;;7.05;6.32;;;;;;;16.84;91.47;101035.88;5051557;28;20050;-79
2022/09/13 01:30:18;;;;;;;8.65;6.70;;;;;;;16.82;91.32;101047.09;5050950;28;20254;-79
2022/09/13 01:33:09;;;;;;;7.63;6.75;;;;;;;16.81;91.50;101040.25;5050683;28;20045;-79
2022/09/13 01:36:14;;;;;;;7.85;7.15;;;;;;;16.81;91.70;101040.25;5052817;28;20049;-79
2022/09/13 01:39:04;;;;;;;7.22;6.30;;;;;;;16.80;92.03;101035.34;5050796;28;20073;-79
2022/09/13 01:41:54;;;;;;;7.70;6.72;;;;;;;16.77;91.58;101049.75;5052846;28;20049;-79
2022/09/13 01:44:30;;;;;;;8.57;7.85;;;;;;;16.67;90.85;101038.44;5052683;28;20421;-79
2022/09/13 01:47:06;;;;;;;8.07;7.28;;;;;;;16.65;90.94;101046.97;5052634;28;20052;-80
2022/09/13 01:49:50;;;;;;;9.95;7.78;;;;;;;16.63;90.36;101027.84;5052273;28;20120;-79
2022/09/13 01:52:28;;;;;;;8.65;7.85;;;;;;;16.65;90.26;101032.78;5051163;28;20057;-79
2022/09/13 01:55:05;;;;;;;8.10;7.40;;;;;;;16.66;90.36;101034.25;5067757;28;20056;-79
2022/09/13 01:58:14;;;;;;;9.60;8.50;;;;;;;16.66;90.13;101029.63;5052601;28;20765;-81
2022/09/13 02:00:51;;;;;;;8.77;7.93;;;;;;;16.68;89.96;101031.84;5052451;28;20352;-79
2022/09/13 02:03:22;;;;;;;11.10;8.00;;;;;;;16.69;90.57;101033.31;5050776;28;20501;-79
2022/09/13 02:05:58;;;;;;;8.93;8.13;;;;;;;16.69;90.30;101035.25;5051793;28;20050;-79
2022/09/13 02:08:37;;;;;;;10.60;7.60;;;;;;;16.68;90.98;101031.84;5051876;28;20125;-79
2022/09/13 02:11:12;;;;;;;8.40;7.70;;;;;;;16.67;91.10;101033.78;5050615;28;20132;-79
2022/09/13 02:14:12;;;;;;;7.82;7.00;;;;;;;16.69;90.69;101021.81;5050463;28;20581;-79
2022/09/13 02:16:53;;;;;;;8.18;7.47;;;;;;;16.67;90.69;101027.69;5044172;28;20553;-80
2022/09/13 02:19:51;;;;;;;7.82;7.18;;;;;;;16.65;91.08;101019.34;5068041;28;20049;-79
2022/09/13 02:22:22;;;;;;;8.18;7.32;;;;;;;16.63;91.47;101024.44;5051109;28;20053;-80
2022/09/13 02:24:54;;;;;;;8.63;7.60;;;;;;;16.64;90.71;101025.94;5051822;28;20034;-79
2022/09/13 02:27:28;;;;;;;8.55;7.75;;;;;;;16.62;90.50;101023.69;5050536;28;20049;-80
2022/09/13 02:29:57;;;;;;;9.77;8.35;;;;;;;16.60;91.41;101030.75;5051970;28;20054;-80
2022/09/13 02:32:35;;;;;;;11.50;7.90;;;;;;;16.58;90.89;101025.84;5051759;28;20124;-80
2022/09/13 02:35:11;;;;;;;10.57;8.52;;;;;;;16.57;90.85;101020.94;5066936;28;20047;-80
2022/09/13 02:37:40;;;;;;;11.90;7.72;;;;;;;16.53;91.20;101025.78;5051912;28;20129;-80
2022/09/13 02:40:12;;;;;;;9.45;7.78;;;;;;;16.54;91.03;101030.69;5050532;28;20100;-80
2022/09/13 02:42:58;;;;;;;8.73;7.88;;;;;;;16.55;90.74;101042.19;5067280;28;20092;-80
2022/09/13 02:45:40;;;;;;;7.93;7.22;;;;;;;16.55;90.90;101040.22;5051848;28;20053;-79
2022/09/13 02:48:15;;;;;;;9.32;7.47;;;;;;;16.56;91.36;101044.41;5051865;28;20053;-80
2022/09/13 02:50:47;;;;;;;8.27;7.05;;;;;;;16.55;91.43;101039.50;5051234;28;20055;-80
2022/09/13 02:53:26;;;;;;;7.63;6.93;;;;;;;16.54;91.72;101038.00;5051963;28;20038;-80
2022/09/13 02:56:19;;;;;;;8.00;7.40;;;;;;;16.53;91.27;101042.66;5051557;28;20084;-80
2022/09/13 02:58:48;;;;;;;10.15;6.68;;;;;;;16.50;91.76;101040.16;5051942;28;20053;-80
2022/09/13 03:01:15;;;;;;;6.95;6.25;;;;;;;16.47;91.73;101030.34;5051784;28;20053;-79
2022/09/13 03:03:43;;;;;;;10.50;6.78;;;;;;;16.44;91.69;101029.34;5050768;28;20053;-80
2022/09/13 03:06:09;;;;;;;7.25;6.60;;;;;;;16.46;91.52;101031.56;5051739;28;20042;-80
2022/09/13 03:08:36;;;;;;;6.70;6.10;;;;;;;16.45;91.42;101036.22;5051361;28;20045;-80
2022/09/13 03:11:19;;;;;;;7.32;6.60;;;;;;;16.45;91.07;101038.91;5066751;28;20491;-80
2022/09/13 03:14:19;;;;;;;7.53;6.93;;;;;;;16.46;91.27;101031.56;5051615;28;20482;-80
2022/09/13 03:17:10;;;;;;;6.97;6.38;;;;;;;16.43;91.51;101027.13;5051673;28;20529;-80
2022/09/13 03:19:43;;;;;;;7.80;7.10;;;;;;;16.41;92.20;101035.66;5049446;28;20136;-80
2022/09/13 03:22:53;;;;;;;12.57;7.05;;;;;;;16.41;92.42;101040.31;5051429;28;20502;-82
2022/09/13 03:26:11;;;;;;;7.53;6.18;;;;;;;16.41;91.86;101032.97;5051242;28;20048;-80
2022/09/13 03:28:49;;;;;;;7.43;6.60;;;;;;;16.40;92.22;101030.78;5009183;28;20491;-80
2022/09/13 03:31:30;;;;;;;10.98;6.88;;;;;;;16.38;92.50;101031.28;5009258;28;20233;-80
2022/09/13 03:34:03;;;;;;;7.82;6.78;;;;;;;16.36;93.29;101031.00;5008598;28;20533;-80
2022/09/13 03:36:36;;;;;;;7.30;6.55;;;;;;;16.33;93.26;101034.63;5009111;28;20491;-80
2022/09/13 03:39:19;;;;;;;7.50;6.80;;;;;;;16.34;92.47;101028.78;5009068;28;20050;-80
2022/09/13 03:41:51;;;;;;;7.65;6.70;;;;;;;16.35;92.97;101029.53;5009307;28;20055;-80
2022/09/13 03:44:20;;;;;;;7.70;7.07;;;;;;;16.33;93.22;101032.69;4976193;28;20054;-80
2022/09/13 03:46:50;;;;;;;8.93;6.85;;;;;;;16.34;93.20;101025.34;5008844;28;20121;-80
2022/09/13 03:49:21;;;;;;;7.68;6.97;;;;;;;16.34;93.07;101028.78;5008609;28;20054;-80
2022/09/13 03:51:50;;;;;;;7.65;6.50;;;;;;;16.35;92.82;101018.78;5009748;28;20069;-80
2022/09/13 03:54:43;;;;;;;8.65;6.70;;;;;;;16.37;92.47;101019.03;5012441;28;20052;-80
2022/09/13 03:57:15;;;;;;;7.60;6.90;;;;;;;16.33;92.78;101016.56;5008952;28;20063;-81
2022/09/13 03:59:50;;;;;;;7.30;6.68;;;;;;;16.33;93.14;101005.06;5012482;28;20058;-80
2022/09/13 04:02:18;;;;;;;10.73;7.30;;;;;;;16.32;93.01;101014.34;5012067;28;20171;-81
2022/09/13 04:04:45;;;;;;;8.43;7.53;;;;;;;16.33;92.92;101015.81;5045231;28;20057;-81
2022/09/13 04:07:14;;;;;;;9.02;8.23;;;;;;;16.33;92.88;101015.81;5054447;28;20145;-80
2022/09/13 04:09:41;;;;;;;11.38;8.82;;;;;;;16.30;93.51;101014.09;5054189;28;20581;-81
2022/09/13 04:12:12;;;;;;;11.80;8.82;;;;;;;16.30;93.40;101022.13;5053970;28;20473;-80
2022/09/13 04:14:40;;;;;;;9.55;8.43;;;;;;;16.27;92.90;101009.66;5053846;28;20056;-80
2022/09/13 04:17:06;;;;;;;9.23;8.30;;;;;;;16.28;92.96;101024.56;5053566;28;20050;-80
2022/09/13 04:19:32;;;;;;;11.55;8.90;;;;;;;16.26;92.97;101013.53;5053797;28;20051;-80
2022/09/13 04:21:59;;;;;;;9.63;8.73;;;;;;;16.25;92.94;101018.19;5069073;28;20046;-81
2022/09/13 04:24:27;;;;;;;10.18;8.98;;;;;;;16.27;92.81;101026.50;5069214;28;20050;-81
2022/09/13 04:26:55;;;;;;;9.98;9.05;;;;;;;16.26;92.64;101032.34;5053791;28;20578;-81
2022/09/13 04:29:23;;;;;;;10.63;9.55;;;;;;;16.25;92.81;101028.19;5053954;28;20131;-80
2022/09/13 04:31:51;;;;;;;12.20;9.57;;;;;;;16.23;93.45;101020.59;5053008;28;20079;-81
2022/09/13 04:34:18;;;;;;;10.30;9.10;;;;;;;16.23;93.20;101031.34;5053783;28;20052;-80
2022/09/13 04:36:46;;;;;;;9.35;8.45;;;;;;;16.20;93.54;101032.28;5053338;28;20080;-80
2022/09/13 04:39:15;;;;;;;9.57;8.68;;;;;;;16.22;93.09;101029.88;5053936;28;20577;-80
2022/09/13 04:41:44;;;;;;;11.27;8.73;;;;;;;16.23;93.09;101036.72;5053447;28;20244;-80
2022/09/13 04:44:11;;;;;;;11.30;8.65;;;;;;;16.24;92.91;101040.13;5052256;28;20058;-81
2022/09/13 04:46:37;;;;;;;8.73;8.02;;;;;;;16.23;93.29;101044.78;5051723;28;20071;-80
2022/09/13 04:49:04;;;;;;;8.18;7.38;;;;;;;16.24;93.49;101057.00;5053434;28;20481;-81
2022/09/13 04:51:30;;;;;;;10.90;7.65;;;;;;;16.24;93.52;101061.63;5053359;28;20112;-81
2022/09/13 04:53:57;;;;;;;11.50;7.43;;;;;;;16.22;93.92;101059.41;5053353;28;20051;-81
2022/09/13 04:56:23;;;;;;;8.85;6.93;;;;;;;16.22;94.13;101064.03;5053085;28;20046;-80
2022/09/13 04:58:50;;;;;;;7.65;6.95;;;;;;;16.22;94.03;101064.78;5053059;28;20041;-81
2022/09/13 05:01:17;;;;;;;15.00;7.57;;;;;;;16.24;94.02;101080.44;5053054;28;20042;-80
2022/09/13 05:03:44;;;;;;;8.35;6.68;;;;;;;16.25;93.83;101071.16;5051464;28;20049;-81
2022/09/13 05:06:13;;;;;;;15.50;7.28;;;;;;;16.27;93.48;101068.75;5053562;28;20081;-81
2022/09/13 05:08:39;;;;;;;7.97;7.28;;;;;;;16.28;93.34;101065.59;5052866;28;20120;-80
2022/09/13 05:11:07;;;;;;;9.65;7.47;;;;;;;16.30;94.15;101065.13;5052907;28;20565;-81
2022/09/13 05:13:33;;;;;;;8.75;7.75;;;;;;;16.29;93.74;101058.28;5052467;28;20128;-80
2022/09/13 05:16:05;;;;;;;7.72;7.07;;;;;;;16.31;93.94;101056.59;5052420;28;20050;-81
2022/09/13 05:18:35;;;;;;;8.45;7.65;;;;;;;16.31;94.23;101061.22;5053005;28;20055;-82
2022/09/13 05:21:03;;;;;;;8.75;7.72;;;;;;;16.32;93.48;101057.34;5051226;28;20051;-82
2022/09/13 05:23:31;;;;;;;8.38;7.57;;;;;;;16.34;93.96;101063.72;5052596;28;20041;-82
2022/09/13 05:26:00;;;;;;;9.77;8.48;;;;;;;16.36;93.96;101060.56;5052681;28;20124;-82
2022/09/13 05:28:30;;;;;;;10.27;8.50;;;;;;;16.36;94.11;101065.19;5052620;28;20128;-82
2022/09/13 05:31:13;;;;;;;12.20;8.10;;;;;;;16.35;94.46;101072.50;5052096;28;20125;-82
2022/09/13 05:33:40;;;;;;;11.40;8.40;;;;;;;16.35;94.24;101075.19;5052680;28;20054;-82
2022/09/13 05:36:07;;;;;;;10.48;9.23;;;;;;;16.36;94.24;101079.34;5068074;28;20472;-82
2022/09/13 05:38:33;;;;;;;11.35;10.02;;;;;;;16.36;94.34;101079.34;5052106;28;20045;-82
2022/09/13 05:41:02;;;;;;;10.27;9.27;;;;;;;16.38;94.01;101079.63;5050883;28;20528;-82
2022/09/13 05:43:31;;;;;;;10.60;9.50;;;;;;;16.39;94.13;101075.00;5050409;28;20050;-82
2022/09/13 05:46:10;;;;;;;10.15;9.13;;;;;;;16.43;93.65;101086.25;5051009;28;20543;-82
2022/09/13 05:48:37;;;;;;;10.82;9.73;;;;;;;16.44;93.87;101090.41;5052500;28;20123;-82
2022/09/13 05:51:08;;;;;;;11.48;9.85;;;;;;;16.44;94.01;101087.72;5067392;28;20506;-81
2022/09/13 05:53:36;;;;;;;11.37;10.07;;;;;;;16.45;93.67;101089.22;5050879;28;20136;-83
2022/09/13 05:56:03;;;;;;;12.80;10.90;;;;;;;16.46;94.13;101091.44;5052233;28;20559;-82
2022/09/13 05:58:29;;;;;;;13.85;10.30;;;;;;;16.46;94.49;101086.06;5051892;28;20638;-82
2022/09/13 06:00:57;;;;;;;11.43;9.85;;;;;;;16.49;94.61;101095.13;5068278;28;20077;-82
2022/09/13 06:03:24;;;;;;;12.38;10.75;;;;;;;16.50;94.95;101091.97;5052079;28;20063;-82
2022/09/13 06:05:54;;;;;;;13.75;10.60;;;;;;;16.53;95.22;101087.59;5052348;28;20505;-83
2022/09/13 06:08:21;;;;;;;14.57;10.98;;;;;;;16.56;94.62;101086.66;5068295;28;20046;-84
2022/09/13 06:10:55;;;;;;;13.20;11.57;;;;;;;16.62;94.77;101088.19;5052361;28;20109;-84
2022/09/13 06:13:21;;;;;;;13.43;11.40;;;;;;;16.65;94.73;101091.91;5068309;28;20052;-84
2022/09/13 06:15:47;;;;;;;14.13;11.52;;;;;;;16.71;94.20;101097.34;5052219;28;20056;-77
2022/09/13 06:18:14;;;;;;;15.95;12.20;;;;;;;16.75;94.84;101093.25;5052820;28;20041;-84
2022/09/13 06:20:41;;;;;;;14.55;12.25;;;;;;;16.79;94.08;101099.16;5052507;28;20133;-88
2022/09/13 06:23:07;;;;;;;13.07;11.32;;;;;;;16.83;94.24;101096.25;5052173;28;20045;-85
2022/09/13 06:25:36;;;;;;;16.23;11.85;;;;;;;16.88;93.91;101090.91;5052238;28;20045;-83
2022/09/13 06:28:03;;;;;;;14.52;12.00;;;;;;;16.99;94.38;101096.41;5052116;28;20552;-84
2022/09/13 06:30:30;;;;;;;14.27;11.93;;;;;;;17.05;93.79;101093.03;5051769;28;20113;-84
2022/09/13 06:32:57;;;;;;;16.92;12.25;;;;;;;17.11;93.54;101088.44;5051520;28;20050;-84
2022/09/13 06:35:24;;;;;;;17.80;13.20;;;;;;;17.17;93.57;101095.34;5051398;28;20490;-83
2022/09/13 06:37:53;;;;;;;22.48;15.00;;;;;;;17.22;93.07;101093.91;5052070;28;20045;-84
2022/09/13 06:40:21;;;;;;;25.73;16.33;;;;;;;17.22;93.42;101097.34;5051996;28;20549;-84
2022/09/13 06:42:50;;;;;;;25.85;16.40;;;;;;;17.24;92.87;101097.59;5050068;28;20054;-82
2022/09/13 06:45:17;;;;;;;23.00;16.23;;;;;;;17.26;92.95;101099.81;5052158;28;20049;-84
2022/09/13 06:47:44;;;;;;;25.30;17.95;;;;;;;17.27;92.78;101090.53;5065205;28;20041;-84
2022/09/13 06:50:11;;;;;;;20.67;16.42;;;;;;;17.32;92.42;101098.66;5051875;28;20532;-81
2022/09/13 06:52:37;;;;;;;24.55;16.95;;;;;;;17.38;93.22;101100.66;5051601;28;20045;-82
2022/09/13 06:55:04;;;;;;;27.40;18.15;;;;;;;17.38;92.58;101098.69;5051570;28;20562;-83
2022/09/13 06:57:36;;;;;;;27.00;18.77;;;;;;;17.41;92.64;101100.44;5051305;28;20056;-80
2022/09/13 07:00:03;;;;;;;23.65;16.25;;;;;;;17.46;92.03;101099.00;5051502;28;20556;-81
2022/09/13 07:02:29;;;;;;;20.85;16.58;;;;;;;17.52;92.65;101091.72;5051117;28;20099;-81
2022/09/13 07:04:56;;;;;;;27.10;18.80;;;;;;;17.57;93.11;101097.13;5051274;28;20061;-82
2022/09/13 07:07:22;;;;;;;27.85;19.27;;;;;;;17.61;92.63;101097.63;5051557;28;20116;-82
2022/09/13 07:09:48;;;;;;;27.77;19.17;;;;;;;17.65;92.45;101095.47;5051374;28;20505;-84
2022/09/13 07:12:15;;;;;;;28.70;18.40;;;;;;;17.72;92.42;101101.66;5051047;28;20041;-80
2022/09/13 07:14:45;;;;;;;28.98;18.75;;;;;;;17.78;92.07;101094.34;5051706;28;20073;-79
2022/09/13 07:17:12;;;;;;;25.73;19.33;;;;;;;17.88;91.60;101098.31;5051816;28;20120;-79
2022/09/13 07:19:39;;;;;;;25.83;18.08;;;;;;;17.97;91.43;101098.88;5051802;28;20044;-81
2022/09/13 07:22:05;;;;;;;35.88;18.88;;;;;;;18.07;91.58;101093.25;5051934;28;20124;-79
2022/09/13 07:24:32;;;;;;;24.20;18.83;;;;;;;18.14;91.94;101087.44;5051588;28;20037;-84
2022/09/13 07:26:58;;;;;;;24.55;18.17;;;;;;;18.22;91.59;101091.13;5052432;28;20072;-79
2022/09/13 07:29:25;;;;;;;23.88;17.75;;;;;;;18.31;92.21;101093.63;5054663;28;20084;-80
2022/09/13 07:31:53;;;;;;;24.88;16.60;;;;;;;18.40;91.43;101098.06;5055413;28;20299;-80
2022/09/13 07:34:25;;;;;;;19.40;15.65;;;;;;;18.47;90.83;101100.28;5037606;28;20085;-81
2022/09/13 07:36:52;;;;;;;28.65;16.42;;;;;;;18.53;91.00;101104.47;5053472;28;20549;-82
2022/09/13 07:39:19;;;;;;;21.88;15.20;;;;;;;18.62;90.85;101109.69;5054583;28;20084;-81
2022/09/13 07:41:48;;;;;;;19.73;15.45;;;;;;;18.73;90.83;101111.69;5053185;28;20485;-80
2022/09/13 07:44:15;;;;;;;19.75;14.77;;;;;;;18.81;90.59;101114.63;5055108;28;20458;-80
2022/09/13 07:46:44;;;;;;;16.00;12.95;;;;;;;18.87;90.56;101113.41;5054689;28;20109;-79
2022/09/13 07:49:13;;;;;;;17.20;13.75;;;;;;;18.98;90.45;101120.78;5054708;28;20108;-80
2022/09/13 07:51:41;;;;;;;17.90;13.23;;;;;;;19.07;90.48;101114.44;5052912;28;20846;-84
2022/09/13 07:54:17;;;;;;;17.85;13.73;;;;;;;19.19;89.51;101115.91;5053472;28;20128;-81
2022/09/13 07:56:45;;;;;;;18.92;13.45;;;;;;;19.31;89.45;101120.06;5054239;28;20049;-83
2022/09/13 07:59:15;;;;;;;14.55;11.68;;;;;;;19.49;88.49;101127.69;5054674;28;20136;-80
2022/09/13 08:01:47;;;;;;;13.02;9.93;;;;;;;19.79;87.28;101122.50;5054438;28;20403;-84
2022/09/13 08:04:17;;;;;;;11.82;8.57;;;;;;;20.04;85.65;101126.13;5054287;28;20133;-81
2022/09/13 08:06:44;;;;;;;11.27;8.38;;;;;;;20.20;84.35;101130.75;5054019;28;20533;-79
2022/09/13 08:09:11;;;;;;;9.10;7.55;;;;;;;20.16;84.27;101132.97;5053813;28;20045;-80
2022/09/13 08:11:43;;;;;;;10.82;7.93;;;;;;;20.17;84.85;101131.75;5054062;28;20049;-80
2022/09/13 08:14:12;;;;;;;7.70;7.07;;;;;;;20.18;84.12;101127.81;5052834;28;20049;-80
2022/09/13 08:16:39;;;;;;;8.07;7.38;;;;;;;20.24;83.43;101133.22;5053914;28;20520;-80
2022/09/13 08:19:09;;;;;;;8.05;7.25;;;;;;;20.37;83.52;101125.28;5053650;28;20048;-80
2022/09/13 08:21:37;;;;;;;10.38;7.72;;;;;;;20.41;82.29;101130.44;5052608;28;20060;-82
2022/09/13 08:24:07;;;;;;;7.38;5.75;;;;;;;20.40;82.25;101129.72;5053312;28;20520;-80
2022/09/13 08:26:35;;;;;;;7.60;6.30;;;;;;;20.41;82.82;101131.19;5053617;28;20520;-77
2022/09/13 08:29:03;;;;;;;7.97;6.22;;;;;;;20.40;82.32;101126.28;5072647;22;20140;-73
2022/09/13 08:31:30;;;;;;;9.30;6.15;;;;;;;20.40;82.77;101137.09;5073642;28;20072;-74
2022/09/13 08:33:57;;;;;;;10.73;5.95;;;;;;;20.48;82.82;101135.34;5073994;28;20044;-73
2022/09/13 08:36:26;;;;;;;5.45;5.05;;;;;;;20.52;81.27;101136.56;5055578;28;20057;-74
2022/09/13 08:38:56;;;;;;;6.20;4.57;;;;;;;20.54;81.54;101130.66;5073398;28;20053;-73
2022/09/13 08:41:43;;;;;;;5.30;4.75;;;;;;;20.59;80.94;101136.03;5073807;28;20489;-74
2022/09/13 08:44:29;;;;;;;8.02;4.90;;;;;;;20.61;81.03;101128.16;5073749;28;20084;-73
2022/09/13 08:47:31;;;;;;;4.80;4.40;;;;;;;20.55;81.54;101129.41;5073933;28;20124;-74
2022/09/13 08:50:11;;;;;;;5.10;4.22;;;;;;;20.59;80.83;101127.91;5011286;28;20530;-73
2022/09/13 08:52:49;;;;;;;9.10;4.70;;;;;;;20.71;80.83;101127.88;5011045;28;20494;-73
2022/09/13 08:55:33;;;;;;;4.60;4.20;;;;;;;21.03;79.14;101128.88;5011714;28;20468;-74
2022/09/13 08:58:16;;;;;;;6.07;4.28;;;;;;;21.20;78.86;101139.56;5011468;28;20060;-73
2022/09/13 09:00:54;;;;;;;5.20;4.00;;;;;;;21.18;77.76;101136.66;5011086;28;20129;-74
2022/09/13 09:03:40;;;;;;;6.55;4.13;;;;;;;21.16;78.19;101131.75;5011526;28;20053;-75
2022/09/13 09:06:13;;;;;;;5.25;3.88;;;;;;;21.14;78.73;101144.31;5011048;28;20046;-74
2022/09/13 09:08:48;;;;;;;3.83;3.13;;;;;;;21.05;77.67;101158.88;5011516;28;20060;-75
2022/09/13 09:11:41;;;;;;;4.93;2.80;;;;;;;21.01;78.11;101155.72;5011415;28;20054;-75
2022/09/13 09:14:19;;;;;;;4.95;2.97;;;;;;;21.15;77.34;101157.34;5011224;28;20174;-75
2022/09/13 09:16:54;;;;;;;5.82;2.10;;;;;;;21.34;76.02;101152.06;5011396;28;20137;-74
2022/09/13 09:19:29;;;;;;;5.47;1.75;;;;;;;21.50;75.24;101156.59;5011371;28;20051;-75
2022/09/13 09:21:57;;;;;;;2.33;2.00;;;;;;;21.45;74.68;101154.69;5010644;28;20046;-75
2022/09/13 09:24:24;;;;;;;3.00;2.00;;;;;;;21.37;75.28;101163.84;5010847;28;20055;-74
2022/09/13 09:27:00;;;;;;;2.63;1.73;;;;;;;21.33;75.28;101161.41;5034794;28;20049;-75
2022/09/13 09:29:32;;;;;;;3.08;2.00;;;;;;;21.44;74.52;101161.34;5072507;28;20531;-75
2022/09/13 09:32:08;;;;;;;4.07;1.83;;;;;;;21.57;74.43;101158.75;5072925;28;20120;-75
2022/09/13 09:34:50;;;;;;;5.68;1.90;;;;;;;21.57;74.85;101152.63;5073171;28;20045;-75
2022/09/13 09:37:28;;;;;;;2.25;1.80;;;;;;;21.51;75.32;101152.66;5054614;28;20091;-76
2022/09/13 09:40:01;;;;;;;2.10;1.60;;;;;;;21.36;75.16;101152.28;5072892;28;20085;-76
2022/09/13 09:42:32;;;;;;;2.70;1.60;;;;;;;21.25;74.92;101152.34;5072707;28;20048;-76
2022/09/13 09:45:18;;;;;;;2.45;1.45;;;;;;;21.21;74.78;101151.91;5072901;28;20120;-76
2022/09/13 09:47:47;;;;;;;2.08;1.55;;;;;;;21.17;74.65;101148.72;5070973;28;20140;-75
2022/09/13 09:50:17;;;;;;;3.90;1.42;;;;;;;21.16;74.74;101142.56;5072179;28;20055;-75
2022/09/13 09:53:13;;;;;;;1.60;1.20;;;;;;;21.19;74.19;101144.25;5072662;28;20562;-74
2022/09/13 09:55:52;;;;;;;1.85;1.38;;;;;;;21.32;73.09;101141.00;5072700;28;20055;-74
2022/09/13 09:58:39;;;;;;;3.67;1.20;;;;;;;21.55;72.53;101134.16;5055253;28;20041;-73
2022/09/13 10:01:16;;;;;;;3.45;1.10;;;;;;;21.78;71.83;101128.50;5072433;28;20176;-73
2022/09/13 10:03:50;;;;;;;2.55;1.27;;;;;;;21.96;71.13;101127.84;5072939;28;20056;-73
2022/09/13 10:06:23;;;;;;;1.20;1.10;;;;;;;22.00;70.72;101139.09;5072249;28;20128;-73
2022/09/13 10:09:23;;;;;;;1.40;1.23;;;;;;;22.09;69.91;101136.09;5054273;28;20429;-74
2022/09/13 10:11:51;;;;;;;2.58;1.00;;;;;;;22.10;69.48;101134.84;5072457;28;20037;-74
2022/09/13 10:14:37;;;;;;;4.93;1.20;;;;;;;22.20;68.81;101132.53;5054286;28;20079;-73
2022/09/13 10:17:14;;;;;;;2.70;1.13;;;;;;;22.18;68.76;101130.31;5072497;28;20049;-73
2022/09/13 10:19:51;;;;;;;2.22;1.10;;;;;;;22.16;68.89;101132.06;5071939;28;20053;-74
2022/09/13 10:22:18;;;;;;;2.78;1.13;;;;;;;22.13;68.62;101131.09;5072784;28;20041;-73
2022/09/13 10:24:44;;;;;;;1.20;1.10;;;;;;;22.10;68.37;101129.41;5072178;28;20466;-75
2022/09/13 10:27:35;;;;;;;6.47;1.58;;;;;;;22.03;68.44;101124.56;5072458;28;20518;-74
2022/09/13 10:30:05;;;;;;;3.33;1.47;;;;;;;22.10;68.24;101129.41;5072045;28;20063;-73
2022/09/13 10:32:32;;;;;;;3.10;1.20;;;;;;;22.14;68.49;101132.56;5072327;28;20129;-73
2022/09/13 10:35:09;;;;;;;3.03;1.42;;;;;;;22.17;68.59;101128.13;5071847;28;20068;-74
2022/09/13 10:37:36;;;;;;;1.80;1.65;;;;;;;22.22;66.89;101130.03;5072106;28;20053;-74
2022/09/13 10:40:15;;;;;;;5.45;1.40;;;;;;;22.28;67.37;101130.69;5072127;28;20124;-73
2022/09/13 10:42:54;;;;;;;5.13;2.05;;;;;;;22.28;67.64;101133.41;5072379;28;20052;-73
2022/09/13 10:45:23;;;;;;;3.30;1.77;;;;;;;22.19;67.32;101142.63;5072205;28;20049;-74
2022/09/13 10:47:53;;;;;;;2.83;1.70;;;;;;;22.12;67.34;101131.63;5071369;28;20596;-73
2022/09/13 10:50:29;;;;;;;6.07;1.80;;;;;;;22.13;67.19;101122.97;5072316;28;20045;-74
2022/09/13 10:53:00;;;;;;;1.73;1.55;;;;;;;22.24;66.92;101128.28;5071949;28;20521;-74
2022/09/13 10:55:32;;;;;;;1.55;1.45;;;;;;;22.32;66.65;101127.69;5071892;28;20155;-74
2022/09/13 10:58:01;;;;;;;1.85;1.67;;;;;;;22.37;66.25;101127.63;5072023;28;20053;-74
2022/09/13 11:00:39;;;;;;;4.32;1.52;;;;;;;22.51;66.38;101128.44;5053962;28;20539;-74
2022/09/13 11:03:24;;;;;;;2.35;1.58;;;;;;;22.66;65.92;101120.59;5074625;28;20045;-74
2022/09/13 11:06:03;;;;;;;1.88;1.55;;;;;;;22.79;65.05;101114.53;5075347;28;20059;-73
2022/09/13 11:09:11;;;;;;;1.73;1.15;;;;;;;22.85;64.94;101117.88;5057238;28;20045;-73
2022/09/13 11:11:56;;;;;;;4.30;1.23;;;;;;;22.94;65.18;101104.66;5074757;28;20061;-73
2022/09/13 11:14:34;;;;;;;1.40;1.30;;;;;;;23.02;64.26;101110.22;5075315;28;20141;-73
2022/09/13 11:17:48;;;;;;;2.13;1.50;;;;;;;23.01;63.96;101114.19;5074171;28;20441;-73
2022/09/13 11:20:33;;;;;;;3.63;2.17;;;;;;;22.85;62.53;101118.59;5012429;28;20289;-73
2022/09/13 11:23:18;;;;;;;3.78;1.70;;;;;;;22.91;63.11;101107.66;5012609;28;20061;-73
2022/09/13 11:26:05;;;;;;;1.88;1.75;;;;;;;22.99;62.65;101100.38;4995941;28;20054;-73
2022/09/13 11:28:47;;;;;;;2.83;1.73;;;;;;;23.24;63.34;101100.97;5012695;28;20486;-73
2022/09/13 11:31:52;;;;;;;1.90;1.45;;;;;;;23.57;62.15;101103.16;5012004;28;20078;-73
2022/09/13 11:34:32;;;;;;;6.65;1.63;;;;;;;23.62;60.92;101109.72;5012900;28;20073;-77
2022/09/13 11:37:24;;;;;;;5.00;1.60;;;;;;;23.53;60.85;101108.16;5011967;28;20154;-74
2022/09/13 11:40:14;;;;;;;4.03;1.80;;;;;;;23.28;60.85;101102.13;5011931;28;20089;-74
2022/09/13 11:42:51;;;;;;;3.50;1.50;;;;;;;23.13;60.79;101095.72;5011018;28;20059;-73
2022/09/13 11:45:23;;;;;;;3.72;1.80;;;;;;;22.95;60.74;101092.53;5012786;28;20102;-74
2022/09/13 11:48:01;;;;;;;6.80;1.60;;;;;;;22.87;61.33;101096.38;5011973;28;20061;-74
2022/09/13 11:50:58;;;;;;;2.80;1.30;;;;;;;23.19;61.91;101104.53;5012279;28;20138;-73
2022/09/13 11:53:39;;;;;;;7.05;1.60;;;;;;;23.22;60.03;101101.47;5012289;28;20527;-75